Aeroporto :
LOGIN :

Iscrizione | Disclaimer

   EN    FR    IT 

 










Sommario :    VFR   VFR Marginale   IFR   IFR Intensivo   IFR Molto Intensivo
Visibilità : 
Base nubi : 
>= 8 km
>= 3000ft
5 / 8 km
1000 / 3000 ft
1500m / 5 km
500 / 1000 ft
800 / 1500m
200 / 500 ft
< 800m
< 200 ft
Simboli :   Temporali  Nebbia  Neve Forte  Precipitazioni Forti  Vento > 20 kt
SIGMETs :   Varie  Temporali  Ghiacco  Turbolenza  Onda orograficha  Ceneri Vulcaniche






- Altitudine del aeroporto : 464 ft
- Codice IATA : EVX


LFOE - Evreux

ULTIMO METAR :
  • 180430Z AUTO 27017G30KT 230V300 5000 -RA BR SCT017/// BKN048/// BKN064/// ///CB 10/08 Q1006 TEMPO 22020G40KT 2000 TSRAGS BECMG BKN020 BKN030

METARs OBSOLETI :
  • 180400Z AUTO 20017KT 9999 BKN020/// BKN029/// OVC072/// ///CB 12/10 Q1004 TEMPO VRB25G50KT 2000 TSRAGS BKN010 BKN020CB
  • 180330Z AUTO 22012KT 9999 FEW028/// SCT039/// BKN054/// ///CB 12/10 Q1005 TEMPO VRB25G50KT 2000 TSRAGS BKN010 BKN020CB
  • 180300Z AUTO 20014KT 8000 -RA SCT019/// SCT028/// BKN060/// ///CB 12/11 Q1005 TEMPO VRB25G50KT 2000 TSRAGS BKN010 BKN020CB
  • 180230Z AUTO 18013KT 9999 SCT020/// BKN050/// OVC072/// ///TCU 13/11 Q1005 TEMPO VRB25G50KT 2000 TSRAGS BKN010 BKN020CB
  • 180200Z AUTO 18011KT 9999 BKN020 BKN068 OVC086 13/11 Q1005 TEMPO 4000 -SHRA SCT010 BKN020TCU BECMG 20020G30KT

TAF AMD TAF LFOE
Valido dal 18 a 04 ore il 19 a 03 ore UTC


180400Z 1804/1903 20015G25KT 9999 BKN020 BKN030
TEMPO 1804/1806 22020G40KT 3000 SHRA SCT015 BKN020CB
PROB30
TEMPO 1804/1806 2000 TSRAGS
TEMPO 1812/1820 4000 SHRA BKN030CB
BECMG 1900/1903 4000 -RA BKN010



MetMap, La meteo Aeronautica in un colpo d'occhio ! - Copyright ORBIFLY Dicembre 2007 - Disclaimer

ORBIFLY MET'MAP TEAM :

Programmazione e sviluppo : Alexandra Zaïnal
Concezione e sviluppo : Baudouin d'Aumeries
Co-Programmazione e sviluppo : Marc-Olivier Méhu
Supporto tecnico e logistico : Manuel Goepfert
Aiuto per la traduzione : Arnaldo La Scala

Contatto : metmap@orbifly.com




FONTI E CREDITI :

   NOAA